Time;durP1;ratioP1;P1;durP2;ratioP2;P2;SDS_P1;SDS_P2;PMS_P1;PMS_P2;Temp;Humidity;BMP_temperature;BMP_pressure;BME280_temperature;BME280_humidity;BME280_pressure;Samples;Min_cycle;Max_cycle;Signal;HPM_P1;HPM_P2
2023/05/14 00:00:15;;;;;;;12.25;9.57;;;13.00;99.90;;;;;;5114293;28;20050;-64
2023/05/14 00:02:41;;;;;;;13.45;9.82;;;13.00;99.90;;;;;;5114558;28;20108;-65
2023/05/14 00:05:08;;;;;;;15.45;9.68;;;12.90;99.90;;;;;;5113776;28;20062;-64
2023/05/14 00:07:35;;;;;;;13.65;10.70;;;12.90;99.90;;;;;;5113959;28;20344;-63
2023/05/14 00:10:01;;;;;;;12.93;10.23;;;12.90;99.90;;;;;;5114080;28;20459;-63
2023/05/14 00:12:28;;;;;;;15.07;9.93;;;12.90;99.90;;;;;;5114363;28;20096;-63
2023/05/14 00:14:55;;;;;;;12.50;10.10;;;12.80;99.90;;;;;;5113795;28;20474;-64
2023/05/14 00:17:21;;;;;;;15.57;9.85;;;12.80;99.90;;;;;;5114222;28;20055;-65
2023/05/14 00:19:48;;;;;;;15.07;10.82;;;12.80;99.90;;;;;;5114590;28;20432;-64
2023/05/14 00:22:14;;;;;;;16.38;10.13;;;12.70;99.90;;;;;;5114179;28;20043;-64
2023/05/14 00:24:40;;;;;;;14.52;10.13;;;12.70;99.90;;;;;;5113980;28;20043;-65
2023/05/14 00:27:07;;;;;;;13.93;9.75;;;12.70;99.90;;;;;;5113910;28;20047;-63
2023/05/14 00:29:33;;;;;;;15.27;10.75;;;12.70;99.90;;;;;;5114138;28;20055;-64
2023/05/14 00:31:59;;;;;;;16.02;11.20;;;12.70;99.90;;;;;;5114037;28;20047;-66
2023/05/14 00:34:25;;;;;;;13.65;10.52;;;12.70;99.90;;;;;;5113410;28;20455;-64
2023/05/14 00:36:52;;;;;;;12.82;9.73;;;12.60;99.90;;;;;;5114013;28;20043;-67
2023/05/14 00:39:18;;;;;;;14.32;10.65;;;12.60;99.90;;;;;;5113864;28;20044;-65
2023/05/14 00:41:45;;;;;;;13.18;9.88;;;12.60;99.90;;;;;;5114013;28;20047;-63
2023/05/14 00:44:11;;;;;;;13.75;10.43;;;12.60;99.90;;;;;;5114172;27;20092;-64
2023/05/14 00:46:37;;;;;;;15.15;11.35;;;12.50;99.90;;;;;;5117814;27;20047;-65
2023/05/14 00:49:04;;;;;;;16.67;11.07;;;12.40;99.90;;;;;;5117314;27;20091;-64
2023/05/14 00:51:30;;;;;;;16.50;10.88;;;12.40;99.90;;;;;;5117384;27;20103;-65
2023/05/14 00:53:56;;;;;;;15.50;10.70;;;12.40;99.90;;;;;;5117262;27;20066;-66
2023/05/14 00:56:23;;;;;;;18.83;11.90;;;12.30;99.90;;;;;;5117497;27;20043;-65
2023/05/14 00:58:49;;;;;;;15.02;11.48;;;12.20;99.90;;;;;;5117225;27;20043;-63
2023/05/14 01:01:16;;;;;;;15.35;11.85;;;12.30;99.90;;;;;;5117444;27;20313;-63
2023/05/14 01:03:43;;;;;;;16.42;10.48;;;12.20;99.90;;;;;;5116748;27;20043;-65
2023/05/14 01:06:09;;;;;;;15.38;10.15;;;12.20;99.90;;;;;;5117449;27;20059;-63
2023/05/14 01:08:57;;;;;;;13.95;10.38;;;12.20;99.90;;;;;;5116770;27;20099;-64
2023/05/14 01:12:09;;;;;;;13.18;10.88;;;12.20;99.90;;;;;;5117329;27;20050;-65
2023/05/14 01:14:44;;;;;;;16.63;10.85;;;12.10;99.90;;;;;;5129863;27;20531;-64
2023/05/14 01:17:13;;;;;;;15.05;10.13;;;12.00;99.90;;;;;;5116809;27;20047;-65
2023/05/14 01:19:44;;;;;;;15.13;11.40;;;12.00;99.90;;;;;;5116863;27;20079;-64
2023/05/14 01:22:11;;;;;;;16.77;11.05;;;12.00;99.90;;;;;;5116732;27;20257;-64
2023/05/14 01:24:37;;;;;;;17.60;11.00;;;11.90;99.90;;;;;;5116402;27;20100;-66
2023/05/14 01:27:29;;;;;;;18.10;12.07;;;12.00;99.90;;;;;;5116716;27;20051;-65
2023/05/14 01:30:12;;;;;;;16.80;11.13;;;11.90;99.90;;;;;;5096332;28;20536;-64
2023/05/14 01:32:39;;;;;;;13.02;9.90;;;11.80;99.90;;;;;;5080004;28;20092;-66
2023/05/14 01:35:08;;;;;;;17.15;10.98;;;11.80;99.90;;;;;;5095592;28;20055;-64
2023/05/14 01:37:35;;;;;;;16.73;11.18;;;11.80;99.90;;;;;;5116401;27;20096;-63
2023/05/14 01:40:02;;;;;;;14.82;10.40;;;11.70;99.90;;;;;;5116587;27;20096;-64
2023/05/14 01:42:29;;;;;;;14.45;12.68;;;11.70;99.90;;;;;;5116676;27;20333;-65
2023/05/14 01:44:56;;;;;;;16.40;11.15;;;11.60;99.90;;;;;;5115982;27;20043;-63
2023/05/14 01:47:22;;;;;;;16.02;11.95;;;11.70;99.90;;;;;;5116377;27;20335;-65
2023/05/14 01:49:48;;;;;;;16.90;11.13;;;11.60;99.90;;;;;;5116385;27;20052;-64
2023/05/14 01:52:15;;;;;;;18.35;10.93;;;11.60;99.90;;;;;;5116626;27;20088;-64
2023/05/14 01:54:41;;;;;;;15.35;10.32;;;11.60;99.90;;;;;;5115642;27;20051;-64
2023/05/14 01:57:07;;;;;;;15.02;10.30;;;11.60;99.90;;;;;;5099061;27;20448;-65
2023/05/14 01:59:33;;;;;;;16.52;10.52;;;11.60;99.90;;;;;;5132859;27;20039;-64
2023/05/14 02:01:59;;;;;;;15.07;11.13;;;11.60;99.90;;;;;;5116375;27;20050;-63
2023/05/14 02:04:26;;;;;;;12.00;10.00;;;11.60;99.90;;;;;;5115744;27;20047;-65
2023/05/14 02:06:52;;;;;;;13.82;10.95;;;11.50;99.90;;;;;;5116283;27;20421;-66
2023/05/14 02:09:18;;;;;;;16.50;10.32;;;11.50;99.90;;;;;;5115732;27;20108;-63
2023/05/14 02:11:44;;;;;;;12.32;9.77;;;11.50;99.90;;;;;;5115711;27;20090;-65
2023/05/14 02:14:11;;;;;;;14.27;10.52;;;11.50;99.90;;;;;;5115421;27;20047;-63
2023/05/14 02:16:37;;;;;;;13.60;10.63;;;11.50;99.90;;;;;;5115928;27;20051;-63
2023/05/14 02:19:03;;;;;;;16.70;11.02;;;11.60;99.90;;;;;;5115544;27;20039;-64
2023/05/14 02:21:29;;;;;;;17.80;10.32;;;11.50;99.90;;;;;;5115750;27;20059;-63
2023/05/14 02:23:56;;;;;;;18.45;10.18;;;11.60;99.90;;;;;;5115774;27;20051;-66
2023/05/14 02:26:22;;;;;;;12.18;9.90;;;11.60;99.90;;;;;;5115872;27;20054;-67
2023/05/14 02:28:48;;;;;;;15.02;10.13;;;11.50;99.90;;;;;;5111919;28;20060;-63
2023/05/14 02:31:17;;;;;;;14.35;9.98;;;11.50;99.90;;;;;;5112438;28;20524;-64
2023/05/14 02:33:44;;;;;;;15.73;9.48;;;11.50;99.90;;;;;;5111600;28;20082;-64
2023/05/14 02:36:10;;;;;;;13.68;10.60;;;11.50;99.90;;;;;;5094892;28;20456;-64
2023/05/14 02:38:37;;;;;;;14.30;10.18;;;11.50;99.90;;;;;;5111748;28;20110;-63
2023/05/14 02:41:03;;;;;;;14.60;10.80;;;11.50;99.90;;;;;;5112293;28;20375;-65
2023/05/14 02:43:30;;;;;;;16.48;10.70;;;11.40;99.90;;;;;;5111471;28;20048;-66
2023/05/14 02:45:56;;;;;;;16.02;10.40;;;11.40;99.90;;;;;;5112005;28;20120;-66
2023/05/14 02:48:22;;;;;;;15.60;10.40;;;11.30;99.90;;;;;;5112900;28;20058;-66
2023/05/14 02:50:50;;;;;;;15.50;10.35;;;11.30;99.90;;;;;;5111803;28;20087;-64
2023/05/14 02:53:16;;;;;;;15.02;11.55;;;11.20;99.90;;;;;;5111519;28;20063;-64
2023/05/14 02:55:43;;;;;;;18.45;10.23;;;11.20;99.90;;;;;;5111589;28;20052;-64
2023/05/14 02:58:09;;;;;;;14.25;9.98;;;11.20;99.90;;;;;;5111633;28;20115;-65
2023/05/14 03:00:36;;;;;;;18.33;10.70;;;11.30;99.90;;;;;;5111570;28;20104;-63
2023/05/14 03:03:02;;;;;;;14.65;10.30;;;11.20;99.90;;;;;;5111749;28;20082;-65
2023/05/14 03:05:28;;;;;;;16.80;10.10;;;11.10;99.90;;;;;;5111236;28;20056;-64
2023/05/14 03:07:54;;;;;;;14.45;9.98;;;11.10;99.90;;;;;;5111847;28;20096;-65
2023/05/14 03:10:21;;;;;;;16.52;11.13;;;11.10;99.90;;;;;;5111957;28;20047;-63
2023/05/14 03:12:47;;;;;;;13.55;9.73;;;11.00;99.90;;;;;;5111597;28;20452;-63
2023/05/14 03:15:13;;;;;;;17.33;10.45;;;10.90;99.90;;;;;;5111035;28;20177;-63
2023/05/14 03:17:40;;;;;;;11.27;9.50;;;10.90;99.90;;;;;;5111160;28;20058;-65
2023/05/14 03:20:06;;;;;;;13.50;9.77;;;11.00;99.90;;;;;;5111307;28;20075;-64
2023/05/14 03:22:32;;;;;;;11.73;9.75;;;11.00;99.90;;;;;;5111384;28;20101;-66
2023/05/14 03:24:59;;;;;;;11.73;9.23;;;11.00;99.90;;;;;;5094365;28;20035;-65
2023/05/14 03:27:25;;;;;;;15.60;10.70;;;11.00;99.90;;;;;;5115428;27;20423;-65
2023/05/14 03:29:51;;;;;;;13.55;10.50;;;10.90;99.90;;;;;;5114851;27;20477;-65
2023/05/14 03:32:18;;;;;;;15.32;9.63;;;10.90;99.90;;;;;;5115060;28;20050;-64
2023/05/14 03:34:44;;;;;;;16.48;10.15;;;11.00;99.90;;;;;;5132161;27;20061;-64
2023/05/14 03:37:10;;;;;;;15.68;10.40;;;10.90;99.90;;;;;;5114453;27;20154;-65
2023/05/14 03:39:37;;;;;;;14.15;9.02;;;10.90;99.90;;;;;;5097808;28;20183;-64
2023/05/14 03:42:03;;;;;;;12.93;9.43;;;10.90;99.90;;;;;;5114833;28;20104;-65
2023/05/14 03:44:29;;;;;;;13.20;9.93;;;10.80;99.90;;;;;;5132262;28;20148;-63
2023/05/14 03:46:56;;;;;;;12.68;8.77;;;10.80;99.90;;;;;;5114598;28;20455;-65
2023/05/14 03:49:22;;;;;;;13.90;8.32;;;10.90;99.90;;;;;;5114130;28;20470;-65
2023/05/14 03:51:48;;;;;;;15.20;9.27;;;10.80;99.90;;;;;;5114672;28;20059;-64
2023/05/14 03:54:14;;;;;;;14.88;10.05;;;10.90;99.90;;;;;;5113957;28;20112;-65
2023/05/14 03:56:40;;;;;;;12.20;9.73;;;10.80;99.90;;;;;;5132369;28;20043;-64
2023/05/14 03:59:07;;;;;;;13.95;9.82;;;10.90;99.90;;;;;;5114129;28;20051;-66
2023/05/14 04:01:33;;;;;;;12.02;9.15;;;10.80;99.90;;;;;;5114549;28;20051;-66
2023/05/14 04:03:59;;;;;;;11.85;9.13;;;10.80;99.90;;;;;;5113807;28;20043;-64
2023/05/14 04:06:26;;;;;;;15.98;9.57;;;10.80;99.90;;;;;;5114293;28;20428;-66
2023/05/14 04:08:52;;;;;;;12.32;9.18;;;10.90;99.90;;;;;;5132304;28;20055;-65
2023/05/14 04:11:18;;;;;;;13.23;8.68;;;10.90;99.90;;;;;;5114163;28;20043;-65
2023/05/14 04:13:45;;;;;;;13.85;9.77;;;10.90;99.90;;;;;;5113626;28;20429;-65
2023/05/14 04:16:11;;;;;;;13.35;9.90;;;10.90;99.90;;;;;;5097318;28;20409;-64
2023/05/14 04:18:37;;;;;;;13.07;9.10;;;11.00;99.90;;;;;;5115376;27;20051;-66
2023/05/14 04:21:04;;;;;;;11.65;8.68;;;10.90;99.90;;;;;;5101213;27;20104;-63
2023/05/14 04:23:33;;;;;;;12.85;9.10;;;10.90;99.90;;;;;;5117870;27;20043;-64
2023/05/14 04:25:59;;;;;;;13.07;9.23;;;11.00;99.90;;;;;;5118084;27;20047;-63
2023/05/14 04:28:26;;;;;;;12.57;9.10;;;11.10;99.90;;;;;;5114004;28;20468;-66
2023/05/14 04:30:52;;;;;;;13.50;9.40;;;11.10;99.90;;;;;;5114597;28;20287;-65
2023/05/14 04:33:18;;;;;;;13.52;9.25;;;11.10;99.90;;;;;;5114328;28;20048;-64
2023/05/14 04:35:45;;;;;;;12.60;9.55;;;11.10;99.90;;;;;;5114498;28;20035;-65
2023/05/14 04:38:13;;;;;;;11.00;8.68;;;11.10;99.90;;;;;;5114160;28;20039;-63
2023/05/14 04:40:40;;;;;;;12.77;9.48;;;11.10;99.90;;;;;;5114212;28;20050;-66
2023/05/14 04:43:07;;;;;;;14.45;9.80;;;11.10;99.90;;;;;;5114129;28;20048;-64
2023/05/14 04:45:33;;;;;;;12.75;9.63;;;11.00;99.90;;;;;;5113934;28;20051;-64
2023/05/14 04:47:59;;;;;;;11.82;9.40;;;11.00;99.90;;;;;;5113915;28;20048;-64
2023/05/14 04:50:25;;;;;;;15.25;10.13;;;11.10;99.90;;;;;;5113910;28;20116;-64
2023/05/14 04:52:51;;;;;;;16.73;9.63;;;10.90;99.90;;;;;;5114413;28;20055;-66
2023/05/14 04:55:18;;;;;;;17.85;9.35;;;11.00;99.90;;;;;;5113883;28;20052;-63
2023/05/14 04:57:44;;;;;;;16.17;9.98;;;11.00;99.90;;;;;;5113643;28;20036;-65
2023/05/14 05:00:12;;;;;;;16.00;9.75;;;11.00;99.90;;;;;;5113908;28;20148;-64
2023/05/14 05:02:38;;;;;;;16.83;9.88;;;11.10;99.90;;;;;;5114110;28;20055;-64
2023/05/14 05:05:04;;;;;;;15.30;9.52;;;11.20;99.90;;;;;;5113068;28;20047;-64
2023/05/14 05:07:30;;;;;;;14.43;9.18;;;11.20;99.90;;;;;;5113714;28;20052;-64
2023/05/14 05:09:57;;;;;;;18.63;11.20;;;11.10;99.90;;;;;;5113952;28;20051;-64
2023/05/14 05:12:23;;;;;;;18.27;10.85;;;11.20;99.90;;;;;;5113935;28;20472;-64
2023/05/14 05:14:49;;;;;;;23.92;11.05;;;11.20;99.90;;;;;;5113388;28;20108;-65
2023/05/14 05:17:15;;;;;;;20.20;11.43;;;11.20;99.90;;;;;;5113523;28;20513;-64
2023/05/14 05:19:42;;;;;;;22.17;12.00;;;11.30;99.90;;;;;;5113320;28;20060;-64
2023/05/14 05:22:08;;;;;;;19.25;12.77;;;11.20;99.90;;;;;;5113814;28;20043;-64
2023/05/14 05:24:34;;;;;;;21.98;12.25;;;11.20;99.90;;;;;;5113179;28;20044;-64
2023/05/14 05:27:00;;;;;;;20.92;11.40;;;11.20;99.90;;;;;;5113764;28;20052;-63
2023/05/14 05:29:27;;;;;;;19.52;11.13;;;11.30;99.90;;;;;;5116188;27;20047;-65
2023/05/14 05:31:53;;;;;;;20.90;11.43;;;11.40;99.90;;;;;;5116732;27;20057;-64
2023/05/14 05:34:19;;;;;;;19.75;11.45;;;11.60;99.90;;;;;;5116323;27;20509;-64
2023/05/14 05:36:45;;;;;;;21.02;11.77;;;11.80;99.90;;;;;;5117146;27;20374;-65
2023/05/14 05:39:12;;;;;;;18.13;11.00;;;12.00;99.90;;;;;;5116440;27;20194;-63
2023/05/14 05:41:38;;;;;;;19.30;12.52;;;11.90;99.90;;;;;;5117085;27;20039;-64
2023/05/14 05:44:04;;;;;;;23.05;12.15;;;12.00;99.90;;;;;;5134506;27;20072;-64
2023/05/14 05:46:30;;;;;;;17.98;12.25;;;11.90;99.90;;;;;;5116973;27;20043;-64
2023/05/14 05:48:57;;;;;;;23.17;13.05;;;11.80;99.90;;;;;;5099210;27;20066;-64
2023/05/14 05:51:23;;;;;;;18.42;11.90;;;11.90;99.90;;;;;;5116404;27;20047;-63
2023/05/14 05:53:50;;;;;;;17.65;11.57;;;12.00;99.90;;;;;;5099004;27;20057;-63
2023/05/14 05:56:16;;;;;;;21.02;12.55;;;12.00;99.90;;;;;;5134544;27;20059;-64
2023/05/14 05:58:42;;;;;;;22.50;12.50;;;12.20;99.90;;;;;;5115886;27;20465;-64
2023/05/14 06:01:08;;;;;;;17.40;11.85;;;12.30;99.90;;;;;;5134341;27;20040;-65
2023/05/14 06:03:35;;;;;;;21.42;12.00;;;12.30;99.90;;;;;;5120813;27;20036;-65
2023/05/14 06:06:01;;;;;;;20.77;13.52;;;12.40;99.90;;;;;;5134135;27;20060;-65
2023/05/14 06:08:27;;;;;;;19.88;12.25;;;12.50;99.90;;;;;;5122997;27;20050;-64
2023/05/14 06:10:54;;;;;;;18.98;11.85;;;12.70;99.90;;;;;;5121491;27;20084;-65
2023/05/14 06:13:20;;;;;;;19.85;11.85;;;13.00;99.90;;;;;;5123808;27;20043;-63
2023/05/14 06:15:46;;;;;;;17.25;11.80;;;13.20;99.90;;;;;;5123921;27;20051;-64
2023/05/14 06:18:13;;;;;;;15.07;11.20;;;13.40;99.90;;;;;;5121484;27;20046;-66
2023/05/14 06:20:40;;;;;;;17.95;12.45;;;13.30;99.90;;;;;;5124136;27;20439;-64
2023/05/14 06:23:07;;;;;;;18.13;12.55;;;13.40;99.90;;;;;;5116034;27;20047;-65
2023/05/14 06:25:33;;;;;;;17.52;12.60;;;13.20;99.90;;;;;;5115560;27;20043;-63
2023/05/14 06:28:00;;;;;;;19.17;11.40;;;13.20;99.90;;;;;;5108674;28;20043;-66
2023/05/14 06:30:26;;;;;;;16.83;11.05;;;13.20;99.90;;;;;;5094692;28;20180;-66
2023/05/14 06:32:52;;;;;;;19.90;11.45;;;13.20;99.90;;;;;;5094361;28;20043;-66
2023/05/14 06:35:18;;;;;;;16.65;11.35;;;13.50;99.90;;;;;;5093033;28;20043;-64
2023/05/14 06:37:45;;;;;;;18.75;10.70;;;13.40;99.90;;;;;;5094145;28;20047;-64
2023/05/14 06:40:14;;;;;;;17.67;10.85;;;13.60;99.90;;;;;;5094387;28;20105;-64
2023/05/14 06:42:41;;;;;;;13.75;10.77;;;13.60;99.90;;;;;;5090664;28;20146;-63
2023/05/14 06:45:07;;;;;;;16.00;10.48;;;13.80;99.90;;;;;;5094193;28;20101;-64
2023/05/14 06:47:34;;;;;;;13.77;10.35;;;13.90;99.90;;;;;;5094415;28;20051;-64
2023/05/14 06:50:00;;;;;;;14.65;9.88;;;14.10;99.90;;;;;;5091544;28;20055;-64
2023/05/14 06:52:27;;;;;;;18.90;11.18;;;14.20;99.90;;;;;;5094589;28;20047;-64
2023/05/14 06:54:53;;;;;;;15.38;10.25;;;14.30;99.90;;;;;;5094202;28;20048;-64
2023/05/14 06:57:19;;;;;;;13.48;10.18;;;14.50;99.90;;;;;;5094370;28;20100;-63
2023/05/14 06:59:46;;;;;;;16.90;10.85;;;14.70;99.90;;;;;;5095227;28;20135;-63
2023/05/14 07:02:12;;;;;;;15.82;9.35;;;14.80;99.90;;;;;;5094895;28;20074;-64
2023/05/14 07:04:38;;;;;;;13.27;9.50;;;15.10;99.90;;;;;;5094064;28;20112;-66
2023/05/14 07:07:04;;;;;;;12.77;9.65;;;15.20;99.90;;;;;;5094599;28;20413;-64
2023/05/14 07:09:31;;;;;;;13.63;9.93;;;15.30;99.90;;;;;;5107873;28;20052;-65
2023/05/14 07:11:57;;;;;;;15.23;10.50;;;15.50;99.90;;;;;;5111656;28;20401;-65
2023/05/14 07:14:23;;;;;;;13.55;9.85;;;15.50;99.90;;;;;;5111149;28;20104;-63
2023/05/14 07:16:49;;;;;;;16.50;9.90;;;15.70;99.90;;;;;;5111524;28;20044;-63
2023/05/14 07:19:16;;;;;;;14.73;9.48;;;15.70;99.90;;;;;;5099274;28;20517;-65
2023/05/14 07:21:42;;;;;;;13.65;9.10;;;16.00;99.90;;;;;;5112549;28;20487;-63
2023/05/14 07:24:08;;;;;;;16.70;9.77;;;16.00;99.90;;;;;;5094211;28;20297;-64
2023/05/14 07:26:34;;;;;;;13.50;9.35;;;16.30;99.90;;;;;;5094270;28;20074;-63
2023/05/14 07:29:01;;;;;;;13.48;8.70;;;16.60;99.90;;;;;;5111546;28;20464;-65
2023/05/14 07:31:27;;;;;;;12.35;9.35;;;16.70;99.90;;;;;;5094188;28;20051;-64
2023/05/14 07:33:53;;;;;;;13.73;9.05;;;16.60;99.90;;;;;;5094011;28;20040;-65
2023/05/14 07:36:19;;;;;;;14.18;8.60;;;16.40;99.90;;;;;;5094132;28;20044;-65
2023/05/14 07:38:46;;;;;;;18.52;10.15;;;16.60;99.90;;;;;;5093754;28;20101;-63
2023/05/14 07:41:12;;;;;;;15.38;8.85;;;16.50;99.90;;;;;;5094435;28;20459;-66
2023/05/14 07:43:39;;;;;;;11.05;9.07;;;16.70;99.90;;;;;;5093895;28;20040;-65
2023/05/14 07:46:05;;;;;;;15.82;9.27;;;16.90;99.90;;;;;;5094031;28;20481;-65
2023/05/14 07:48:31;;;;;;;12.23;8.77;;;17.00;99.90;;;;;;5094066;28;20472;-64
2023/05/14 07:50:58;;;;;;;13.25;8.75;;;17.20;99.90;;;;;;5077064;28;20100;-64
2023/05/14 07:53:25;;;;;;;12.60;9.25;;;17.10;99.90;;;;;;5094995;28;20088;-65
2023/05/14 07:55:51;;;;;;;13.73;8.73;;;17.10;99.90;;;;;;5098458;28;20074;-65
2023/05/14 07:58:17;;;;;;;15.13;9.63;;;17.10;99.90;;;;;;5098211;28;20051;-65
2023/05/14 08:00:44;;;;;;;16.17;8.68;;;17.20;99.90;;;;;;5098013;28;20040;-64
2023/05/14 08:03:10;;;;;;;13.48;9.55;;;17.30;99.90;;;;;;5097612;28;20051;-65
2023/05/14 08:05:36;;;;;;;14.77;8.65;;;17.60;99.90;;;;;;5114960;28;20061;-64
2023/05/14 08:08:02;;;;;;;12.40;9.07;;;17.50;99.90;;;;;;5115501;28;20051;-65
2023/05/14 08:10:30;;;;;;;14.27;9.32;;;17.70;99.90;;;;;;5097743;28;20507;-66
2023/05/14 08:12:56;;;;;;;12.15;8.70;;;17.60;99.90;;;;;;5097704;28;20051;-64
2023/05/14 08:15:22;;;;;;;10.10;8.23;;;17.50;99.90;;;;;;5097561;28;20047;-66
2023/05/14 08:17:48;;;;;;;12.82;9.27;;;17.60;99.90;;;;;;5097411;28;20035;-66
2023/05/14 08:20:15;;;;;;;15.75;9.00;;;17.50;99.90;;;;;;5097594;28;20067;-64
2023/05/14 08:22:41;;;;;;;13.35;8.75;;;17.30;99.90;;;;;;5097395;28;20043;-64
2023/05/14 08:25:07;;;;;;;10.43;8.65;;;17.50;99.90;;;;;;5097637;28;20126;-64
2023/05/14 08:27:34;;;;;;;15.85;9.57;;;17.50;99.90;;;;;;5099213;28;20154;-64
2023/05/14 08:30:00;;;;;;;14.68;9.60;;;17.60;99.90;;;;;;5097746;28;20080;-65
2023/05/14 08:32:26;;;;;;;16.38;10.27;;;17.70;99.90;;;;;;5080968;28;20055;-64
2023/05/14 08:34:52;;;;;;;12.50;10.02;;;17.70;99.90;;;;;;5096998;28;20043;-64
2023/05/14 08:37:19;;;;;;;15.95;10.45;;;17.90;99.90;;;;;;5097791;28;20360;-66
2023/05/14 08:39:45;;;;;;;14.25;9.98;;;17.90;99.90;;;;;;5115566;27;20398;-64
2023/05/14 08:42:12;;;;;;;12.10;10.23;;;18.20;99.90;;;;;;5117961;27;20499;-66
2023/05/14 08:44:47;;;;;;;15.38;9.45;;;18.30;99.90;;;;;;5117246;27;20072;-64
2023/05/14 08:47:15;;;;;;;13.60;9.35;;;18.40;99.90;;;;;;5117804;27;20047;-65
2023/05/14 08:49:45;;;;;;;13.38;9.82;;;18.70;99.90;;;;;;5098604;28;20097;-66
2023/05/14 08:52:11;;;;;;;14.13;10.95;;;18.90;99.90;;;;;;5101126;27;20348;-65
2023/05/14 08:54:40;;;;;;;13.93;9.77;;;19.10;99.90;;;;;;5107513;27;20478;-66
2023/05/14 08:57:10;;;;;;;13.30;9.20;;;19.20;99.90;;;;;;5115925;27;20073;-64
2023/05/14 08:59:36;;;;;;;13.80;10.45;;;19.20;99.90;;;;;;5082539;28;20055;-65
2023/05/14 09:02:05;;;;;;;12.60;9.75;;;18.90;99.90;;;;;;5116533;27;20058;-66
2023/05/14 09:04:32;;;;;;;14.40;9.13;;;19.00;99.90;;;;;;5116037;28;20038;-66
2023/05/14 09:07:00;;;;;;;15.55;9.77;;;19.10;99.90;;;;;;5117303;27;20111;-65
2023/05/14 09:09:27;;;;;;;12.60;9.23;;;19.00;99.90;;;;;;5110498;27;20047;-64
2023/05/14 09:11:53;;;;;;;12.15;9.63;;;19.10;99.90;;;;;;5135580;27;20107;-64
2023/05/14 09:14:21;;;;;;;13.50;9.50;;;19.10;99.90;;;;;;5116718;27;20050;-65
2023/05/14 09:16:48;;;;;;;14.63;9.40;;;19.00;99.90;;;;;;5117380;27;20051;-64
2023/05/14 09:19:17;;;;;;;13.65;9.45;;;19.10;99.90;;;;;;5102582;28;20112;-65
2023/05/14 09:21:45;;;;;;;14.65;9.68;;;19.20;99.90;;;;;;5089007;28;20452;-65
2023/05/14 09:24:22;;;;;;;12.15;9.15;;;19.40;99.90;;;;;;5085534;28;20035;-64
2023/05/14 09:26:55;;;;;;;9.77;8.32;;;19.60;99.90;;;;;;5088010;28;20044;-65
2023/05/14 09:29:24;;;;;;;10.75;8.02;;;19.50;99.90;;;;;;5091389;28;20051;-65
2023/05/14 09:31:51;;;;;;;11.65;8.38;;;19.80;99.90;;;;;;5114751;27;20040;-66
2023/05/14 09:34:25;;;;;;;10.48;8.00;;;19.80;99.90;;;;;;5116354;27;20096;-66
2023/05/14 09:36:57;;;;;;;11.90;8.52;;;19.80;99.90;;;;;;5114266;27;20096;-68
2023/05/14 09:39:25;;;;;;;9.25;8.02;;;19.90;99.90;;;;;;5111909;27;20043;-65
2023/05/14 09:41:51;;;;;;;12.15;8.52;;;19.90;99.90;;;;;;5116684;27;20047;-66
2023/05/14 09:44:19;;;;;;;11.82;7.63;;;20.10;99.90;;;;;;5116571;27;20047;-65
2023/05/14 09:46:45;;;;;;;8.88;7.00;;;20.00;99.90;;;;;;5116969;27;20047;-65
2023/05/14 09:49:12;;;;;;;9.85;6.82;;;20.20;99.90;;;;;;5116336;27;20051;-64
2023/05/14 09:51:38;;;;;;;11.40;6.72;;;20.00;99.90;;;;;;5116350;27;20047;-64
2023/05/14 09:54:05;;;;;;;11.98;7.95;;;20.20;99.90;;;;;;5116164;27;20472;-65
2023/05/14 09:56:33;;;;;;;11.93;7.85;;;20.30;99.90;;;;;;5134650;27;20463;-64
2023/05/14 09:58:59;;;;;;;11.50;7.55;;;20.30;99.90;;;;;;5115929;27;20054;-65
2023/05/14 10:01:28;;;;;;;11.35;7.47;;;20.30;99.90;;;;;;5116143;27;20055;-66
2023/05/14 10:03:54;;;;;;;10.80;7.68;;;19.90;99.90;;;;;;5115984;27;20078;-65
2023/05/14 10:06:26;;;;;;;9.13;7.15;;;20.10;99.90;;;;;;5115927;27;20520;-67
2023/05/14 10:08:55;;;;;;;9.75;7.53;;;20.30;99.90;;;;;;5095814;28;20101;-65
2023/05/14 10:11:25;;;;;;;8.95;6.82;;;20.40;99.90;;;;;;5095589;28;20525;-66
2023/05/14 10:14:24;;;;;;;11.77;7.10;;;20.50;99.90;;;;;;5095822;28;20131;-65
2023/05/14 10:16:51;;;;;;;8.13;7.25;;;20.60;99.90;;;;;;5078386;28;20402;-65
2023/05/14 10:19:23;;;;;;;9.07;7.38;;;20.80;99.90;;;;;;5109730;27;20523;-64
2023/05/14 10:21:55;;;;;;;;;;;21.10;99.90;;;;;;5116197;27;20047;-66
2023/05/14 10:24:23;;;;;;;8.18;5.78;;;21.20;99.90;;;;;;5133488;27;20349;-66
2023/05/14 10:26:49;;;;;;;9.77;6.30;;;21.40;99.90;;;;;;5115760;27;20043;-64
2023/05/14 10:29:15;;;;;;;7.72;6.18;;;21.40;99.90;;;;;;5110810;28;20112;-64
2023/05/14 10:31:54;;;;;;;8.20;5.78;;;21.60;99.90;;;;;;5094097;28;20047;-64
2023/05/14 10:34:42;;;;;;;8.82;6.05;;;21.70;99.90;;;;;;5093250;28;20451;-65
2023/05/14 10:37:25;;;;;;;7.85;5.55;;;21.50;99.90;;;;;;5107307;28;20057;-65
2023/05/14 10:40:00;;;;;;;10.15;5.47;;;21.40;99.90;;;;;;5092657;28;20043;-67
2023/05/14 10:42:42;;;;;;;8.00;5.55;;;21.40;99.90;;;;;;5088003;28;20466;-63
2023/05/14 10:45:13;;;;;;;8.02;6.38;;;21.50;99.90;;;;;;5072215;28;20063;-64
2023/05/14 10:47:43;;;;;;;11.63;5.75;;;21.60;99.90;;;;;;5093894;28;20108;-65
2023/05/14 10:50:11;;;;;;;9.80;6.45;;;21.90;99.90;;;;;;5057893;28;20048;-65
2023/05/14 10:52:44;;;;;;;9.05;5.95;;;22.10;99.90;;;;;;5070685;28;20482;-65
2023/05/14 10:55:15;;;;;;;8.55;5.75;;;22.30;99.90;;;;;;5074702;28;20051;-64
2023/05/14 10:57:43;;;;;;;9.65;6.20;;;22.30;99.90;;;;;;5074991;28;20052;-65
2023/05/14 11:00:11;;;;;;;8.20;6.93;;;22.40;99.90;;;;;;5057746;28;20414;-65
2023/05/14 11:02:40;;;;;;;9.93;6.50;;;22.30;99.90;;;;;;5057456;28;20066;-64
2023/05/14 11:05:15;;;;;;;9.20;5.80;;;22.30;99.90;;;;;;5074488;28;20456;-64
2023/05/14 11:07:46;;;;;;;6.10;5.50;;;22.30;99.90;;;;;;5074938;28;20056;-66
2023/05/14 11:10:15;;;;;;;8.30;5.68;;;22.30;99.00;;;;;;5074405;28;20131;-65
2023/05/14 11:12:43;;;;;;;7.50;5.32;;;22.40;99.90;;;;;;5074026;28;20064;-66
2023/05/14 11:15:12;;;;;;;9.57;6.18;;;22.60;99.60;;;;;;5074473;28;20105;-64
2023/05/14 11:17:40;;;;;;;7.22;5.32;;;22.60;99.80;;;;;;5074314;28;20040;-65
2023/05/14 11:20:09;;;;;;;6.50;5.25;;;22.70;99.50;;;;;;5093742;28;20043;-64
2023/05/14 11:22:37;;;;;;;6.85;5.78;;;22.80;99.20;;;;;;5093938;28;20486;-65
2023/05/14 11:25:05;;;;;;;11.13;5.88;;;22.60;99.20;;;;;;5111825;28;20355;-64
2023/05/14 11:27:34;;;;;;;9.20;5.35;;;22.70;98.90;;;;;;5093735;28;20059;-65
2023/05/14 11:30:01;;;;;;;6.75;5.05;;;22.70;99.00;;;;;;5094135;28;20052;-65
2023/05/14 11:32:27;;;;;;;10.27;5.47;;;23.00;99.50;;;;;;5111878;28;20043;-66
2023/05/14 11:34:54;;;;;;;8.63;6.07;;;23.00;99.20;;;;;;5094098;28;20054;-65
2023/05/14 11:37:20;;;;;;;7.75;6.32;;;22.90;99.20;;;;;;5112541;28;20039;-66
2023/05/14 11:39:48;;;;;;;8.35;5.35;;;23.10;99.10;;;;;;5112163;28;20047;-64
2023/05/14 11:42:17;;;;;;;8.10;5.43;;;23.10;98.90;;;;;;5111617;28;20048;-66
2023/05/14 11:44:46;;;;;;;8.75;5.22;;;23.10;98.70;;;;;;5112293;28;20077;-65
2023/05/14 11:47:12;;;;;;;7.15;4.93;;;23.00;98.70;;;;;;5112169;28;20483;-64
2023/05/14 11:49:38;;;;;;;6.70;5.00;;;23.20;98.90;;;;;;5111917;28;20051;-65
2023/05/14 11:52:09;;;;;;;7.25;5.50;;;23.40;98.70;;;;;;5094141;28;20051;-64
2023/05/14 11:54:35;;;;;;;8.10;5.82;;;23.30;97.80;;;;;;5111793;28;20525;-65
2023/05/14 11:57:10;;;;;;;9.25;4.78;;;23.20;98.00;;;;;;5095015;28;20126;-65
2023/05/14 11:59:37;;;;;;;7.25;5.20;;;23.30;97.20;;;;;;5094420;28;20043;-64
2023/05/14 12:02:04;;;;;;;8.93;4.88;;;23.10;97.80;;;;;;5094159;28;20047;-65
2023/05/14 12:04:31;;;;;;;7.85;5.00;;;23.20;97.90;;;;;;5093339;28;20044;-64
2023/05/14 12:06:59;;;;;;;10.57;5.82;;;23.40;98.00;;;;;;5111828;28;20052;-64
2023/05/14 12:09:25;;;;;;;7.57;5.80;;;23.30;98.10;;;;;;5093788;28;20112;-65
2023/05/14 12:11:51;;;;;;;7.60;5.25;;;23.20;98.10;;;;;;5077312;28;20082;-66
2023/05/14 12:14:23;;;;;;;8.25;6.40;;;23.40;98.00;;;;;;5093548;28;20461;-64
2023/05/14 12:16:49;;;;;;;;;;;23.40;97.60;;;;;;5095174;28;20052;-64
2023/05/14 12:19:18;;;;;;;10.20;5.63;;;23.40;97.70;;;;;;5093506;28;19935;-66
2023/05/14 12:21:46;;;;;;;5.95;5.35;;;23.30;97.70;;;;;;5093728;28;20088;-64
2023/05/14 12:24:16;;;;;;;8.93;4.68;;;23.30;97.60;;;;;;5076675;28;20052;-64
2023/05/14 12:26:46;;;;;;;7.60;5.60;;;23.40;97.60;;;;;;5094045;28;20692;-65
2023/05/14 12:29:14;;;;;;;7.32;4.60;;;23.70;96.90;;;;;;5106565;28;20055;-65
2023/05/14 12:31:48;;;;;;;5.10;4.55;;;23.70;96.90;;;;;;5114818;28;20076;-66
2023/05/14 12:34:15;;;;;;;8.88;4.78;;;23.80;96.00;;;;;;5113904;28;20063;-65
2023/05/14 12:36:42;;;;;;;8.32;4.65;;;23.70;95.10;;;;;;5114061;28;20096;-65